sensor_id;sensor_type;location;lat;lon;timestamp;pressure;altitude;pressure_sealevel;temperature;humidity
29903;BME280;30288;50.514;9.678;2023-02-13T00:01:38;100817.81;;;5.43;100.00
29903;BME280;30288;50.514;9.678;2023-02-13T00:03:44;100817.81;;;5.43;100.00
29903;BME280;30288;50.514;9.678;2023-02-13T00:05:49;100816.13;;;5.42;100.00
29903;BME280;30288;50.514;9.678;2023-02-13T00:07:55;100818.63;;;5.40;100.00
29903;BME280;30288;50.514;9.678;2023-02-13T00:10:00;100816.06;;;5.39;100.00
29903;BME280;30288;50.514;9.678;2023-02-13T00:12:08;100812.69;;;5.37;100.00
29903;BME280;30288;50.514;9.678;2023-02-13T00:14:13;100812.59;;;5.34;100.00
29903;BME280;30288;50.514;9.678;2023-02-13T00:16:19;100808.44;;;5.34;100.00
29903;BME280;30288;50.514;9.678;2023-02-13T00:18:25;100813.38;;;5.33;100.00
29903;BME280;30288;50.514;9.678;2023-02-13T00:20:30;100809.28;;;5.35;100.00
29903;BME280;30288;50.514;9.678;2023-02-13T00:22:36;100805.19;;;5.37;100.00
29903;BME280;30288;50.514;9.678;2023-02-13T00:24:41;100796.00;;;5.36;100.00
29903;BME280;30288;50.514;9.678;2023-02-13T00:26:47;100807.75;;;5.40;100.00
29903;BME280;30288;50.514;9.678;2023-02-13T00:28:56;100808.63;;;5.40;100.00
29903;BME280;30288;50.514;9.678;2023-02-13T00:31:07;100816.06;;;5.39;100.00
29903;BME280;30288;50.514;9.678;2023-02-13T00:33:13;100807.75;;;5.40;100.00
29903;BME280;30288;50.514;9.678;2023-02-13T00:35:19;100804.38;;;5.38;100.00
29903;BME280;30288;50.514;9.678;2023-02-13T00:37:27;100806.06;;;5.39;100.00
29903;BME280;30288;50.514;9.678;2023-02-13T00:39:32;100797.69;;;5.37;100.00
29903;BME280;30288;50.514;9.678;2023-02-13T00:41:37;100791.94;;;5.39;100.00
29903;BME280;30288;50.514;9.678;2023-02-13T00:43:44;100786.88;;;5.38;100.00
29903;BME280;30288;50.514;9.678;2023-02-13T00:45:52;100794.31;;;5.35;100.00
29903;BME280;30288;50.514;9.678;2023-02-13T00:47:58;100792.59;;;5.34;100.00
29903;BME280;30288;50.514;9.678;2023-02-13T00:50:05;100787.72;;;5.37;100.00
29903;BME280;30288;50.514;9.678;2023-02-13T00:52:11;100791.75;;;5.33;100.00
29903;BME280;30288;50.514;9.678;2023-02-13T00:54:17;100791.81;;;5.35;100.00
29903;BME280;30288;50.514;9.678;2023-02-13T00:56:22;100797.66;;;5.35;100.00
29903;BME280;30288;50.514;9.678;2023-02-13T00:58:27;100804.31;;;5.35;100.00
29903;BME280;30288;50.514;9.678;2023-02-13T01:00:32;100794.25;;;5.33;100.00
29903;BME280;30288;50.514;9.678;2023-02-13T01:02:42;100795.19;;;5.37;100.00
29903;BME280;30288;50.514;9.678;2023-02-13T01:04:47;100803.50;;;5.36;100.00
29903;BME280;30288;50.514;9.678;2023-02-13T01:06:52;100799.38;;;5.38;100.00
29903;BME280;30288;50.514;9.678;2023-02-13T01:08:57;100796.84;;;5.36;100.00
29903;BME280;30288;50.514;9.678;2023-02-13T01:11:03;100798.38;;;5.31;100.00
29903;BME280;30288;50.514;9.678;2023-02-13T01:13:09;100796.81;;;5.35;100.00
29903;BME280;30288;50.514;9.678;2023-02-13T01:15:14;100795.09;;;5.34;100.00
29903;BME280;30288;50.514;9.678;2023-02-13T01:17:20;100795.91;;;5.33;100.00
29903;BME280;30288;50.514;9.678;2023-02-13T01:19:27;100799.13;;;5.28;100.00
29903;BME280;30288;50.514;9.678;2023-02-13T01:21:33;100792.44;;;5.27;100.00
29903;BME280;30288;50.514;9.678;2023-02-13T01:23:39;100804.13;;;5.28;100.00
29903;BME280;30288;50.514;9.678;2023-02-13T01:25:45;100802.59;;;5.34;100.00
29903;BME280;30288;50.514;9.678;2023-02-13T01:27:53;100800.78;;;5.28;100.00
29903;BME280;30288;50.514;9.678;2023-02-13T01:29:59;100800.66;;;5.23;100.00
29903;BME280;30288;50.514;9.678;2023-02-13T01:32:04;100800.75;;;5.26;100.00
29903;BME280;30288;50.514;9.678;2023-02-13T01:34:10;100799.06;;;5.25;100.00
29903;BME280;30288;50.514;9.678;2023-02-13T01:36:17;100795.66;;;5.23;100.00
29903;BME280;30288;50.514;9.678;2023-02-13T01:38:22;100797.28;;;5.21;100.00
29903;BME280;30288;50.514;9.678;2023-02-13T01:40:28;100796.44;;;5.21;100.00
29903;BME280;30288;50.514;9.678;2023-02-13T01:42:35;100793.91;;;5.19;100.00
29903;BME280;30288;50.514;9.678;2023-02-13T01:44:50;100799.84;;;5.24;100.00
29903;BME280;30288;50.514;9.678;2023-02-13T01:46:55;100795.66;;;5.23;100.00
29903;BME280;30288;50.514;9.678;2023-02-13T01:49:08;100797.38;;;5.24;100.00
29903;BME280;30288;50.514;9.678;2023-02-13T01:51:21;100794.00;;;5.22;100.00
29903;BME280;30288;50.514;9.678;2023-02-13T01:53:34;100789.75;;;5.20;100.00
29903;BME280;30288;50.514;9.678;2023-02-13T01:55:47;100792.38;;;5.24;100.00
29903;BME280;30288;50.514;9.678;2023-02-13T01:58:00;100793.16;;;5.23;100.00
29903;BME280;30288;50.514;9.678;2023-02-13T02:00:12;100792.19;;;5.18;100.00
29903;BME280;30288;50.514;9.678;2023-02-13T02:02:19;100793.81;;;5.16;100.00
29903;BME280;30288;50.514;9.678;2023-02-13T02:04:28;100781.38;;;5.18;100.00
29903;BME280;30288;50.514;9.678;2023-02-13T02:06:43;100783.84;;;5.16;100.00
29903;BME280;30288;50.514;9.678;2023-02-13T02:09:04;100783.72;;;5.13;100.00
29903;BME280;30288;50.514;9.678;2023-02-13T02:11:19;100779.56;;;5.12;100.00
29903;BME280;30288;50.514;9.678;2023-02-13T02:13:26;100787.06;;;5.12;100.00
29903;BME280;30288;50.514;9.678;2023-02-13T02:15:38;100782.00;;;5.11;100.00
29903;BME280;30288;50.514;9.678;2023-02-13T02:17:43;100787.06;;;5.12;100.00
29903;BME280;30288;50.514;9.678;2023-02-13T02:20:01;100781.22;;;5.12;100.00
29903;BME280;30288;50.514;9.678;2023-02-13T02:22:57;100787.06;;;5.12;100.00
29903;BME280;30288;50.514;9.678;2023-02-13T02:29:00;100788.59;;;5.07;100.00
29903;BME280;30288;50.514;9.678;2023-02-13T02:31:42;100790.28;;;5.08;100.00
29903;BME280;30288;50.514;9.678;2023-02-13T02:34:03;100785.34;;;5.11;100.00
29903;BME280;30288;50.514;9.678;2023-02-13T02:36:25;100785.34;;;5.11;100.00
29903;BME280;30288;50.514;9.678;2023-02-13T02:38:48;100787.06;;;5.12;100.00
29903;BME280;30288;50.514;9.678;2023-02-13T02:41:08;100781.16;;;5.10;100.00
29903;BME280;30288;50.514;9.678;2023-02-13T02:43:50;100782.06;;;5.12;100.00
29903;BME280;30288;50.514;9.678;2023-02-13T02:46:09;100787.06;;;5.12;100.00
29903;BME280;30288;50.514;9.678;2023-02-13T02:48:28;100787.94;;;5.14;100.00
29903;BME280;30288;50.514;9.678;2023-02-13T02:50:52;100782.06;;;5.12;100.00
29903;BME280;30288;50.514;9.678;2023-02-13T02:53:20;100780.38;;;5.11;100.00
29903;BME280;30288;50.514;9.678;2023-02-13T02:55:37;100775.38;;;5.11;100.00
29903;BME280;30288;50.514;9.678;2023-02-13T02:57:54;100778.75;;;5.13;100.00
29903;BME280;30288;50.514;9.678;2023-02-13T03:00:19;100777.06;;;5.12;100.00
29903;BME280;30288;50.514;9.678;2023-02-13T03:02:38;100776.25;;;5.13;100.00
29903;BME280;30288;50.514;9.678;2023-02-13T03:05:00;100783.72;;;5.13;100.00
29903;BME280;30288;50.514;9.678;2023-02-13T03:07:19;100776.97;;;5.09;100.00
29903;BME280;30288;50.514;9.678;2023-02-13T03:09:29;100785.34;;;5.11;100.00
29903;BME280;30288;50.514;9.678;2023-02-13T03:11:50;100786.34;;;5.16;100.00
29903;BME280;30288;50.514;9.678;2023-02-13T03:14:15;100777.03;;;5.11;100.00
29903;BME280;30288;50.514;9.678;2023-02-13T03:16:23;100784.56;;;5.12;100.00
29903;BME280;30288;50.514;9.678;2023-02-13T03:18:44;100787.72;;;5.07;100.00
29903;BME280;30288;50.514;9.678;2023-02-13T03:21:14;100790.09;;;5.02;100.00
29903;BME280;30288;50.514;9.678;2023-02-13T03:23:46;100785.28;;;5.08;100.00
29903;BME280;30288;50.514;9.678;2023-02-13T03:26:28;100792.84;;;5.11;100.00
29903;BME280;30288;50.514;9.678;2023-02-13T03:28:54;100780.28;;;5.08;100.00
29903;BME280;30288;50.514;9.678;2023-02-13T03:31:33;100779.41;;;5.06;100.00
29903;BME280;30288;50.514;9.678;2023-02-13T03:33:53;100784.59;;;5.14;100.00
29903;BME280;30288;50.514;9.678;2023-02-13T03:36:09;100785.28;;;5.08;100.00
29903;BME280;30288;50.514;9.678;2023-02-13T03:38:35;100787.63;;;5.04;100.00
29903;BME280;30288;50.514;9.678;2023-02-13T03:40:47;100786.81;;;5.03;100.00
29903;BME280;30288;50.514;9.678;2023-02-13T03:43:11;100779.41;;;5.06;100.00
29903;BME280;30288;50.514;9.678;2023-02-13T03:45:22;100784.34;;;5.05;100.00
29903;BME280;30288;50.514;9.678;2023-02-13T03:47:45;100779.56;;;5.12;100.00
29903;BME280;30288;50.514;9.678;2023-02-13T03:49:53;100781.97;;;5.09;100.00
29903;BME280;30288;50.514;9.678;2023-02-13T03:52:16;100785.41;;;5.13;100.00
29903;BME280;30288;50.514;9.678;2023-02-13T03:54:27;100781.97;;;5.09;100.00
29903;BME280;30288;50.514;9.678;2023-02-13T03:56:49;100783.50;;;5.04;100.00
29903;BME280;30288;50.514;9.678;2023-02-13T03:59:18;100781.72;;;5.00;100.00
29903;BME280;30288;50.514;9.678;2023-02-13T04:01:27;100783.41;;;5.01;100.00
29903;BME280;30288;50.514;9.678;2023-02-13T04:03:43;100785.13;;;5.02;100.00
29903;BME280;30288;50.514;9.678;2023-02-13T04:05:53;100788.47;;;5.04;100.00
29903;BME280;30288;50.514;9.678;2023-02-13T04:08:03;100790.09;;;5.02;100.00
29903;BME280;30288;50.514;9.678;2023-02-13T04:10:11;100790.78;;;4.97;100.00
29903;BME280;30288;50.514;9.678;2023-02-13T04:12:20;100784.88;;;4.93;100.00
29903;BME280;30288;50.514;9.678;2023-02-13T04:14:31;100791.44;;;4.91;100.00
29903;BME280;30288;50.514;9.678;2023-02-13T04:16:42;100784.75;;;4.90;100.00
29903;BME280;30288;50.514;9.678;2023-02-13T04:18:49;100784.81;;;4.92;100.00
29903;BME280;30288;50.514;9.678;2023-02-13T04:21:00;100783.97;;;4.91;100.00
29903;BME280;30288;50.514;9.678;2023-02-13T04:23:10;100780.59;;;4.89;100.00
29903;BME280;30288;50.514;9.678;2023-02-13T04:25:17;100785.53;;;4.88;100.00
29903;BME280;30288;50.514;9.678;2023-02-13T04:27:25;100787.19;;;4.87;100.00
29903;BME280;30288;50.514;9.678;2023-02-13T04:29:31;100792.13;;;4.85;100.00
29903;BME280;30288;50.514;9.678;2023-02-13T04:31:36;100793.63;;;4.80;100.00
29903;BME280;30288;50.514;9.678;2023-02-13T04:33:42;100801.00;;;4.76;100.00
29903;BME280;30288;50.514;9.678;2023-02-13T04:35:47;100795.84;;;4.70;100.00
29903;BME280;30288;50.514;9.678;2023-02-13T04:37:52;100792.28;;;4.62;100.00
29903;BME280;30288;50.514;9.678;2023-02-13T04:40:01;100787.00;;;4.53;100.00
29903;BME280;30288;50.514;9.678;2023-02-13T04:42:06;100791.75;;;4.44;100.00
29903;BME280;30288;50.514;9.678;2023-02-13T04:44:11;100795.53;;;4.31;100.00
29903;BME280;30288;50.514;9.678;2023-02-13T04:46:16;100794.19;;;4.15;100.00
29903;BME280;30288;50.514;9.678;2023-02-13T04:48:22;100794.41;;;3.96;100.00
29903;BME280;30288;50.514;9.678;2023-02-13T04:50:27;100791.25;;;3.75;100.00
29903;BME280;30288;50.514;9.678;2023-02-13T04:52:33;100784.84;;;3.58;100.00
29903;BME280;30288;50.514;9.678;2023-02-13T04:54:38;100784.16;;;3.36;100.00
29903;BME280;30288;50.514;9.678;2023-02-13T04:56:46;100774.47;;;3.20;100.00
29903;BME280;30288;50.514;9.678;2023-02-13T04:58:51;100774.75;;;3.04;100.00
29903;BME280;30288;50.514;9.678;2023-02-13T05:00:56;100771.81;;;2.92;100.00
29903;BME280;30288;50.514;9.678;2023-02-13T05:03:04;100774.53;;;2.76;100.00
29903;BME280;30288;50.514;9.678;2023-02-13T05:05:10;100773.19;;;2.61;100.00
29903;BME280;30288;50.514;9.678;2023-02-13T05:07:15;100776.69;;;2.44;100.00
29903;BME280;30288;50.514;9.678;2023-02-13T05:09:21;100782.00;;;2.31;100.00
29903;BME280;30288;50.514;9.678;2023-02-13T05:11:26;100784.00;;;2.19;100.00
29903;BME280;30288;50.514;9.678;2023-02-13T05:13:34;100783.66;;;2.10;100.00
29903;BME280;30288;50.514;9.678;2023-02-13T05:15:39;100784.16;;;2.01;100.00
29903;BME280;30288;50.514;9.678;2023-02-13T05:17:44;100787.81;;;1.89;100.00
29903;BME280;30288;50.514;9.678;2023-02-13T05:19:49;100784.13;;;1.81;100.00
29903;BME280;30288;50.514;9.678;2023-02-13T05:21:55;100787.72;;;1.66;100.00
29903;BME280;30288;50.514;9.678;2023-02-13T05:24:13;100784.75;;;1.54;100.00
29903;BME280;30288;50.514;9.678;2023-02-13T05:26:21;100791.69;;;1.42;100.00
29903;BME280;30288;50.514;9.678;2023-02-13T05:28:27;100792.22;;;1.35;100.00
29903;BME280;30288;50.514;9.678;2023-02-13T05:30:47;100788.28;;;1.21;100.00
29903;BME280;30288;50.514;9.678;2023-02-13T05:32:52;100792.22;;;1.16;100.00
29903;BME280;30288;50.514;9.678;2023-02-13T05:34:59;100795.22;;;1.09;100.00
29903;BME280;30288;50.514;9.678;2023-02-13T05:37:05;100793.44;;;1.06;100.00
29903;BME280;30288;50.514;9.678;2023-02-13T05:39:10;100793.78;;;0.95;100.00
29903;BME280;30288;50.514;9.678;2023-02-13T05:41:16;100788.66;;;0.92;100.00
29903;BME280;30288;50.514;9.678;2023-02-13T05:43:21;100791.69;;;0.84;100.00
29903;BME280;30288;50.514;9.678;2023-02-13T05:45:26;100794.66;;;0.77;100.00
29903;BME280;30288;50.514;9.678;2023-02-13T05:47:34;100801.19;;;0.75;100.00
29903;BME280;30288;50.514;9.678;2023-02-13T05:49:40;100792.56;;;0.67;100.00
29903;BME280;30288;50.514;9.678;2023-02-13T05:51:45;100792.78;;;0.54;100.00
29903;BME280;30288;50.514;9.678;2023-02-13T05:53:50;100792.38;;;0.45;100.00
29903;BME280;30288;50.514;9.678;2023-02-13T05:55:56;100795.97;;;0.34;100.00
29903;BME280;30288;50.514;9.678;2023-02-13T05:58:01;100785.81;;;0.28;100.00
29903;BME280;30288;50.514;9.678;2023-02-13T06:00:08;100794.38;;;0.17;100.00
29903;BME280;30288;50.514;9.678;2023-02-13T06:02:13;100799.66;;;0.07;100.00
29903;BME280;30288;50.514;9.678;2023-02-13T06:04:21;100793.72;;;0.03;100.00
29903;BME280;30288;50.514;9.678;2023-02-13T06:06:27;100798.38;;;-0.03;100.00
29903;BME280;30288;50.514;9.678;2023-02-13T06:08:32;100799.03;;;-0.07;100.00
29903;BME280;30288;50.514;9.678;2023-02-13T06:10:37;100797.25;;;-0.10;100.00
29903;BME280;30288;50.514;9.678;2023-02-13T06:12:45;100795.38;;;-0.14;100.00
29903;BME280;30288;50.514;9.678;2023-02-13T06:14:51;100799.09;;;-0.06;100.00
29903;BME280;30288;50.514;9.678;2023-02-13T06:16:56;100799.56;;;-0.13;100.00
29903;BME280;30288;50.514;9.678;2023-02-13T06:19:01;100796.53;;;-0.07;100.00
29903;BME280;30288;50.514;9.678;2023-02-13T06:21:09;100801.34;;;-0.10;100.00
29903;BME280;30288;50.514;9.678;2023-02-13T06:23:14;100806.88;;;-0.16;100.00
29903;BME280;30288;50.514;9.678;2023-02-13T06:25:20;100807.56;;;-0.18;100.00
29903;BME280;30288;50.514;9.678;2023-02-13T06:27:25;100809.03;;;-0.22;100.00
29903;BME280;30288;50.514;9.678;2023-02-13T06:29:30;100813.31;;;-0.19;100.00
29903;BME280;30288;50.514;9.678;2023-02-13T06:31:37;100822.19;;;-0.23;100.00
29903;BME280;30288;50.514;9.678;2023-02-13T06:33:42;100820.19;;;-0.30;100.00
29903;BME280;30288;50.514;9.678;2023-02-13T06:35:47;100824.94;;;-0.34;100.00
29903;BME280;30288;50.514;9.678;2023-02-13T06:37:55;100825.78;;;-0.34;100.00
29903;BME280;30288;50.514;9.678;2023-02-13T06:40:01;100830.88;;;-0.31;100.00
29903;BME280;30288;50.514;9.678;2023-02-13T06:42:06;100818.34;;;-0.34;100.00
29903;BME280;30288;50.514;9.678;2023-02-13T06:44:11;100820.53;;;-0.40;100.00
29903;BME280;30288;50.514;9.678;2023-02-13T06:46:16;100823.44;;;-0.47;100.00
29903;BME280;30288;50.514;9.678;2023-02-13T06:48:21;100822.31;;;-0.54;100.00
29903;BME280;30288;50.514;9.678;2023-02-13T06:50:27;100815.56;;;-0.56;100.00
29903;BME280;30288;50.514;9.678;2023-02-13T06:52:32;100820.69;;;-0.53;100.00
29903;BME280;30288;50.514;9.678;2023-02-13T06:54:41;100825.88;;;-0.49;100.00
29903;BME280;30288;50.514;9.678;2023-02-13T06:56:49;100828.41;;;-0.47;100.00
29903;BME280;30288;50.514;9.678;2023-02-13T06:58:55;100829.56;;;-0.40;100.00
29903;BME280;30288;50.514;9.678;2023-02-13T07:01:00;100832.13;;;-0.39;100.00
29903;BME280;30288;50.514;9.678;2023-02-13T07:03:05;100830.72;;;-0.34;100.00
29903;BME280;30288;50.514;9.678;2023-02-13T07:05:12;100830.56;;;-0.37;100.00
29903;BME280;30288;50.514;9.678;2023-02-13T07:07:20;100818.41;;;-0.32;100.00
29903;BME280;30288;50.514;9.678;2023-02-13T07:09:26;100827.47;;;-0.33;100.00
29903;BME280;30288;50.514;9.678;2023-02-13T07:11:34;100827.09;;;-0.24;100.00
29903;BME280;30288;50.514;9.678;2023-02-13T07:13:41;100831.31;;;-0.22;100.00
29903;BME280;30288;50.514;9.678;2023-02-13T07:15:46;100829.63;;;-0.23;100.00
29903;BME280;30288;50.514;9.678;2023-02-13T07:17:57;100838.13;;;-0.18;100.00
29903;BME280;30288;50.514;9.678;2023-02-13T07:20:03;100834.09;;;-0.16;100.00
29903;BME280;30288;50.514;9.678;2023-02-13T07:22:09;100842.38;;;-0.15;100.00
29903;BME280;30288;50.514;9.678;2023-02-13T07:24:14;100841.97;;;-0.07;100.00
29903;BME280;30288;50.514;9.678;2023-02-13T07:26:20;100842.53;;;0.06;100.00
29903;BME280;30288;50.514;9.678;2023-02-13T07:28:29;100839.22;;;0.05;100.00
29903;BME280;30288;50.514;9.678;2023-02-13T07:30:35;100841.13;;;0.11;100.00
29903;BME280;30288;50.514;9.678;2023-02-13T07:32:40;100840.28;;;0.10;100.00
29903;BME280;30288;50.514;9.678;2023-02-13T07:34:45;100833.06;;;0.15;100.00
29903;BME280;30288;50.514;9.678;2023-02-13T07:37:03;100834.94;;;0.19;100.00
29903;BME280;30288;50.514;9.678;2023-02-13T07:39:08;100834.34;;;0.24;100.00
29903;BME280;30288;50.514;9.678;2023-02-13T07:41:13;100838.75;;;0.30;100.00
29903;BME280;30288;50.514;9.678;2023-02-13T07:43:18;100835.78;;;0.37;100.00
29903;BME280;30288;50.514;9.678;2023-02-13T07:45:27;100840.88;;;0.40;100.00
29903;BME280;30288;50.514;9.678;2023-02-13T07:47:33;100834.50;;;0.45;100.00
29903;BME280;30288;50.514;9.678;2023-02-13T07:49:38;100830.69;;;0.52;100.00
29903;BME280;30288;50.514;9.678;2023-02-13T07:51:44;100831.69;;;0.55;100.00
29903;BME280;30288;50.514;9.678;2023-02-13T07:53:50;100834.66;;;0.66;100.00
29903;BME280;30288;50.514;9.678;2023-02-13T07:55:58;100838.41;;;0.75;100.00
29903;BME280;30288;50.514;9.678;2023-02-13T07:58:05;100834.50;;;0.80;100.00
29903;BME280;30288;50.514;9.678;2023-02-13T08:00:13;100836.44;;;0.87;100.00
29903;BME280;30288;50.514;9.678;2023-02-13T08:02:21;100834.25;;;0.94;100.00
29903;BME280;30288;50.514;9.678;2023-02-13T08:04:28;100830.59;;;1.05;100.00
29903;BME280;30288;50.514;9.678;2023-02-13T08:06:34;100835.06;;;1.12;100.00
29903;BME280;30288;50.514;9.678;2023-02-13T08:08:39;100837.94;;;1.21;100.00
29903;BME280;30288;50.514;9.678;2023-02-13T08:10:45;100838.03;;;1.24;100.00
29903;BME280;30288;50.514;9.678;2023-02-13T08:13:03;100844.22;;;1.32;100.00
29903;BME280;30288;50.514;9.678;2023-02-13T08:15:11;100839.38;;;1.35;100.00
29903;BME280;30288;50.514;9.678;2023-02-13T08:17:16;100839.50;;;1.38;100.00
29903;BME280;30288;50.514;9.678;2023-02-13T08:19:24;100830.97;;;1.52;100.00
29903;BME280;30288;50.514;9.678;2023-02-13T08:21:30;100837.81;;;1.56;100.00
29903;BME280;30288;50.514;9.678;2023-02-13T08:23:36;100833.22;;;1.65;100.00
29903;BME280;30288;50.514;9.678;2023-02-13T08:25:46;100835.03;;;1.69;100.00
29903;BME280;30288;50.514;9.678;2023-02-13T08:27:51;100838.00;;;1.82;100.00
29903;BME280;30288;50.514;9.678;2023-02-13T08:29:58;100837.59;;;1.92;100.00
29903;BME280;30288;50.514;9.678;2023-02-13T08:32:05;100833.13;;;2.04;100.00
29903;BME280;30288;50.514;9.678;2023-02-13T08:34:11;100837.44;;;2.08;100.00
29903;BME280;30288;50.514;9.678;2023-02-13T08:36:19;100836.03;;;2.14;100.00
29903;BME280;30288;50.514;9.678;2023-02-13T08:38:24;100833.00;;;2.22;100.00
29903;BME280;30288;50.514;9.678;2023-02-13T08:40:30;100840.75;;;2.29;100.00
29903;BME280;30288;50.514;9.678;2023-02-13T08:42:36;100832.75;;;2.36;100.00
29903;BME280;30288;50.514;9.678;2023-02-13T08:44:42;100827.34;;;2.46;100.00
29903;BME280;30288;50.514;9.678;2023-02-13T08:46:48;100835.16;;;2.55;100.00
29903;BME280;30288;50.514;9.678;2023-02-13T08:48:53;100835.59;;;2.68;100.00
29903;BME280;30288;50.514;9.678;2023-02-13T08:50:58;100839.22;;;2.76;100.00
29903;BME280;30288;50.514;9.678;2023-02-13T08:53:06;100838.72;;;2.84;100.00
29903;BME280;30288;50.514;9.678;2023-02-13T08:55:12;100833.34;;;2.96;100.00
29903;BME280;30288;50.514;9.678;2023-02-13T08:57:18;100836.31;;;3.09;100.00
29903;BME280;30288;50.514;9.678;2023-02-13T08:59:23;100835.91;;;3.21;100.00
29903;BME280;30288;50.514;9.678;2023-02-13T09:01:29;100831.34;;;3.33;100.00
29903;BME280;30288;50.514;9.678;2023-02-13T09:03:35;100835.16;;;3.47;100.00
29903;BME280;30288;50.514;9.678;2023-02-13T09:05:41;100833.91;;;3.59;100.00
29903;BME280;30288;50.514;9.678;2023-02-13T09:07:47;100828.63;;;3.75;100.00
29903;BME280;30288;50.514;9.678;2023-02-13T09:09:54;100838.19;;;3.88;100.00
29903;BME280;30288;50.514;9.678;2023-02-13T09:11:59;100833.66;;;4.02;100.00
29903;BME280;30288;50.514;9.678;2023-02-13T09:14:06;100835.59;;;4.10;100.00
29903;BME280;30288;50.514;9.678;2023-02-13T09:16:11;100837.72;;;4.25;100.00
29903;BME280;30288;50.514;9.678;2023-02-13T09:18:16;100834.09;;;4.42;100.00
29903;BME280;30288;50.514;9.678;2023-02-13T09:20:22;100842.19;;;4.62;100.00
29903;BME280;30288;50.514;9.678;2023-02-13T09:22:28;100838.28;;;4.70;100.00
29903;BME280;30288;50.514;9.678;2023-02-13T09:24:33;100839.41;;;4.81;100.00
29903;BME280;30288;50.514;9.678;2023-02-13T09:26:41;100840.78;;;5.00;100.00
29903;BME280;30288;50.514;9.678;2023-02-13T09:28:46;100835.50;;;5.17;100.00
29903;BME280;30288;50.514;9.678;2023-02-13T09:30:51;100828.97;;;5.22;100.00
29903;BME280;30288;50.514;9.678;2023-02-13T09:32:56;100827.81;;;5.43;100.00
29903;BME280;30288;50.514;9.678;2023-02-13T09:35:03;100828.28;;;5.61;100.00
29903;BME280;30288;50.514;9.678;2023-02-13T09:37:10;100826.19;;;5.75;100.00
29903;BME280;30288;50.514;9.678;2023-02-13T09:39:15;100826.59;;;5.91;100.00
29903;BME280;30288;50.514;9.678;2023-02-13T09:41:24;100820.44;;;6.11;100.00
29903;BME280;30288;50.514;9.678;2023-02-13T09:43:35;100818.34;;;6.30;100.00
29903;BME280;30288;50.514;9.678;2023-02-13T09:45:43;100825.41;;;6.46;100.00
29903;BME280;30288;50.514;9.678;2023-02-13T09:47:50;100810.72;;;6.63;100.00
29903;BME280;30288;50.514;9.678;2023-02-13T09:50:00;100814.34;;;6.75;100.00
29903;BME280;30288;50.514;9.678;2023-02-13T09:52:08;100814.41;;;6.78;100.00
29903;BME280;30288;50.514;9.678;2023-02-13T09:54:15;100810.59;;;6.95;100.00
29903;BME280;30288;50.514;9.678;2023-02-13T09:56:38;100810.09;;;7.12;100.00
29903;BME280;30288;50.514;9.678;2023-02-13T09:58:56;100811.16;;;7.24;100.00
29903;BME280;30288;50.514;9.678;2023-02-13T10:01:05;100814.63;;;7.31;100.00
29903;BME280;30288;50.514;9.678;2023-02-13T10:03:26;100811.63;;;7.50;100.00
29903;BME280;30288;50.514;9.678;2023-02-13T10:05:51;100806.78;;;7.59;100.00
29903;BME280;30288;50.514;9.678;2023-02-13T10:08:07;100817.09;;;7.76;100.00
29903;BME280;30288;50.514;9.678;2023-02-13T10:10:26;100822.25;;;7.83;100.00
29903;BME280;30288;50.514;9.678;2023-02-13T10:12:47;100821.47;;;7.87;100.00
29903;BME280;30288;50.514;9.678;2023-02-13T10:15:13;100823.25;;;7.95;100.00
29903;BME280;30288;50.514;9.678;2023-02-13T10:17:22;100818.47;;;8.10;100.00
29903;BME280;30288;50.514;9.678;2023-02-13T10:19:36;100813.72;;;8.28;100.00
29903;BME280;30288;50.514;9.678;2023-02-13T10:21:55;100819.78;;;8.39;100.00
29903;BME280;30288;50.514;9.678;2023-02-13T10:24:05;100812.41;;;8.51;100.00
29903;BME280;30288;50.514;9.678;2023-02-13T10:26:19;100814.34;;;8.70;100.00
29903;BME280;30288;50.514;9.678;2023-02-13T10:28:32;100807.78;;;8.78;100.00
29903;BME280;30288;50.514;9.678;2023-02-13T10:30:50;100804.66;;;8.98;100.00
29903;BME280;30288;50.514;9.678;2023-02-13T10:33:00;100808.22;;;9.15;100.00
29903;BME280;30288;50.514;9.678;2023-02-13T10:35:26;100800.06;;;9.37;100.00
29903;BME280;30288;50.514;9.678;2023-02-13T10:37:34;100805.19;;;9.46;100.00
29903;BME280;30288;50.514;9.678;2023-02-13T10:39:42;100799.44;;;9.58;100.00
29903;BME280;30288;50.514;9.678;2023-02-13T10:41:52;100800.38;;;9.71;100.00
29903;BME280;30288;50.514;9.678;2023-02-13T10:44:19;100800.50;;;9.83;100.00
29903;BME280;30288;50.514;9.678;2023-02-13T10:46:39;100795.59;;;10.01;100.00
29903;BME280;30288;50.514;9.678;2023-02-13T10:49:13;100789.75;;;10.02;100.00
29903;BME280;30288;50.514;9.678;2023-02-13T10:51:29;100787.28;;;10.14;100.00
29903;BME280;30288;50.514;9.678;2023-02-13T10:53:52;100786.59;;;10.32;100.00
29903;BME280;30288;50.514;9.678;2023-02-13T10:56:22;100786.63;;;10.38;100.00
29903;BME280;30288;50.514;9.678;2023-02-13T10:58:44;100782.44;;;10.38;100.00
29903;BME280;30288;50.514;9.678;2023-02-13T11:00:56;100780.81;;;10.46;100.00
29903;BME280;30288;50.514;9.678;2023-02-13T11:03:17;100780.03;;;10.61;100.00
29903;BME280;30288;50.514;9.678;2023-02-13T11:05:28;100774.19;;;10.70;100.00
29903;BME280;30288;50.514;9.678;2023-02-13T11:07:34;100775.03;;;10.63;100.00
29903;BME280;30288;50.514;9.678;2023-02-13T11:09:43;100773.44;;;10.86;100.00
29903;BME280;30288;50.514;9.678;2023-02-13T11:11:51;100775.09;;;10.82;100.00
29903;BME280;30288;50.514;9.678;2023-02-13T11:14:12;100772.53;;;10.75;100.00
29903;BME280;30288;50.514;9.678;2023-02-13T11:16:18;100771.78;;;10.88;100.00
29903;BME280;30288;50.514;9.678;2023-02-13T11:18:29;100774.31;;;11.00;100.00
29903;BME280;30288;50.514;9.678;2023-02-13T11:20:39;100764.25;;;11.06;100.00
29903;BME280;30288;50.514;9.678;2023-02-13T11:22:46;100765.09;;;11.08;100.00